»·PEaware :: N358V KSBP-KSMX

N358V :: KSBP-KSMX

FLIGHT INFORMATION

Flight Status: Arrived
Operator: Privately registered:
United States
More flights under this callsign
Pilot: Brian W. (33829)
Aircraft: SOCATA TBM-900
(TBM9)
More flights by this aircraft type
Origin: KSBP San Luis Co Regl
United States
Destination: KSMX Santa Maria Pub/Capt Hancock
United States
More flights between these airports :: More routes between these airports
Route:
File this flight plan on PilotEdge
Remarks: 3RD flight on network
Altitude:
(Current/Filed)
3,500ft
Speed:
(Current/Filed)
150kts
Departed: 22-Feb-21 08:49 PM
Arrived: 22-Feb-21 09:04 PM
Distance/Time
Traveled:
22nm/0:14
Distance/Time
To Go:
Arrived

Flight Plot

Page will automatically refresh every two minutes.


Map Options




Map Legend


Flown Route
Filed Route
Departure Airport
Arrival Airport
Navaid (VOR, NDB)
Fix

Horizontal Profiles

Position Reports

Time Latitude Longitude Heading Altitude Ground
Speed
22-Feb-21 20:25 35.234202 -120.632859 306 215ft 0kts
22-Feb-21 20:26 35.234202 -120.632859 306 215ft 0kts
22-Feb-21 20:27 35.234202 -120.632859 306 215ft 0kts
22-Feb-21 20:28 35.234202 -120.632859 306 215ft 0kts
22-Feb-21 20:29 35.234202 -120.632859 306 215ft 0kts
22-Feb-21 20:30 35.234202 -120.632859 306 215ft 0kts
22-Feb-21 20:31 35.234202 -120.632859 306 215ft 0kts
22-Feb-21 20:32 35.234202 -120.632859 306 215ft 0kts
22-Feb-21 20:33 35.234202 -120.632859 306 215ft 0kts
22-Feb-21 20:34 35.234202 -120.632859 306 215ft 0kts
22-Feb-21 20:35 35.234202 -120.632859 306 215ft 0kts
22-Feb-21 20:36 35.234202 -120.632859 306 215ft 0kts
22-Feb-21 20:37 35.234202 -120.632859 306 215ft 0kts
22-Feb-21 20:38 35.234202 -120.632859 306 215ft 0kts
22-Feb-21 20:39 35.234202 -120.632859 306 215ft 0kts
22-Feb-21 20:40 35.234202 -120.632859 306 215ft 0kts
22-Feb-21 20:41 35.234202 -120.632859 306 215ft 0kts
22-Feb-21 20:42 35.234202 -120.632859 306 215ft 0kts
22-Feb-21 20:43 35.234202 -120.632859 306 215ft 0kts
22-Feb-21 20:44 35.234470 -120.633475 272 215ft 6kts
22-Feb-21 20:45 35.233217 -120.632334 208 215ft 1kts
22-Feb-21 20:46 35.233194 -120.632353 215 215ft 0kts
22-Feb-21 20:47 35.233107 -120.633512 300 215ft 6kts
22-Feb-21 20:48 35.246949 -120.660259 296 886ft 127kts
22-Feb-21 20:49 35.225010 -120.665512 145 2233ft 141kts
22-Feb-21 20:50 35.194466 -120.635311 130 2327ft 129kts
22-Feb-21 20:51 35.170548 -120.605946 153 2281ft 122kts
22-Feb-21 20:52 35.139352 -120.588877 153 2273ft 123kts
22-Feb-21 20:53 35.107877 -120.571631 153 2285ft 126kts
22-Feb-21 20:54 35.074702 -120.553476 153 2275ft 130kts
22-Feb-21 20:55 35.041801 -120.535482 153 2281ft 129kts
22-Feb-21 20:56 35.009602 -120.517889 153 2279ft 124kts
22-Feb-21 20:57 34.978665 -120.500984 153 2285ft 120kts
22-Feb-21 20:58 34.950471 -120.476224 137 2290ft 132kts
22-Feb-21 20:59 34.921860 -120.444677 137 2286ft 140kts
22-Feb-21 21:00 34.893872 -120.406859 122 2094ft 132kts
22-Feb-21 21:01 34.873731 -120.403845 267 1297ft 133kts
22-Feb-21 21:02 34.888372 -120.440815 315 327ft 110kts
22-Feb-21 21:03 34.898032 -120.450282 0 264ft 0kts
22-Feb-21 21:04 34.899297 -120.450273 2 264ft 12kts
22-Feb-21 21:05 34.899505 -120.450601 229 264ft 0kts
22-Feb-21 21:06 34.899505 -120.450601 229 264ft 0kts
22-Feb-21 21:07 34.899505 -120.450601 229 264ft 0kts
22-Feb-21 21:08 34.899505 -120.450601 229 264ft 0kts
22-Feb-21 21:09 34.899505 -120.450601 229 264ft 0kts
22-Feb-21 21:10 34.899505 -120.450601 230 264ft 0kts
22-Feb-21 21:11 34.899505 -120.450601 230 264ft 0kts
22-Feb-21 21:12 34.899505 -120.450601 230 264ft 0kts
22-Feb-21 21:13 34.899505 -120.450601 230 264ft 0kts
22-Feb-21 21:14 34.899505 -120.450601 230 264ft 0kts
22-Feb-21 21:15 34.899505 -120.450601 230 264ft 0kts
22-Feb-21 21:16 34.899505 -120.450601 230 264ft 0kts
22-Feb-21 21:17 34.899505 -120.450601 230 264ft 0kts

Navigation Log

Ident Type
Flight plan parsing failed, navigation log unavailable